Time;durP1;ratioP1;P1;durP2;ratioP2;P2;SDS_P1;SDS_P2;PMS_P1;PMS_P2;Temp;Humidity;BMP_temperature;BMP_pressure;BME280_temperature;BME280_humidity;BME280_pressure;Samples;Min_cycle;Max_cycle;Signal;HPM_P1;HPM_P2
2022/01/04 00:01:13;;;;;;;27.63;4.33;;;6.70;99.90;;;;;;4831155;29;20124;-84
2022/01/04 00:03:40;;;;;;;32.17;4.20;;;6.70;99.90;;;;;;4812891;29;20079;-84
2022/01/04 00:06:07;;;;;;;33.28;5.05;;;6.70;99.90;;;;;;4841450;29;20059;-84
2022/01/04 00:08:33;;;;;;;31.23;5.05;;;6.70;99.90;;;;;;4837649;29;20041;-84
2022/01/04 00:11:08;;;;;;;27.43;5.43;;;6.80;99.90;;;;;;4817110;29;20064;-84
2022/01/04 00:13:34;;;;;;;36.90;5.55;;;6.80;99.90;;;;;;4826391;29;20426;-85
2022/01/04 00:16:03;;;;;;;42.67;5.45;;;6.90;99.90;;;;;;4823103;29;20091;-85
2022/01/04 00:18:28;;;;;;;34.70;5.22;;;6.90;99.90;;;;;;4833452;29;20046;-85
2022/01/04 00:20:54;;;;;;;35.40;4.90;;;7.00;99.90;;;;;;4832770;29;20555;-85
2022/01/04 00:23:21;;;;;;;32.70;5.07;;;7.00;99.90;;;;;;4807133;29;20049;-85
2022/01/04 00:25:47;;;;;;;28.85;5.63;;;7.00;99.90;;;;;;4808133;29;20152;-85
2022/01/04 00:28:13;;;;;;;33.58;6.07;;;7.10;99.90;;;;;;4850481;29;20045;-85
2022/01/04 00:30:40;;;;;;;33.23;4.67;;;7.10;99.90;;;;;;4824214;29;20041;-85
2022/01/04 00:33:07;;;;;;;31.05;5.32;;;7.10;99.90;;;;;;4842437;29;20052;-85
2022/01/04 00:35:34;;;;;;;41.75;6.28;;;7.10;99.90;;;;;;4842151;29;20109;-85
2022/01/04 00:38:00;;;;;;;25.42;6.25;;;7.10;99.90;;;;;;4830443;29;20041;-85
2022/01/04 00:40:26;;;;;;;28.63;5.63;;;7.10;99.90;;;;;;4846849;29;20101;-85
2022/01/04 00:42:55;;;;;;;29.00;5.05;;;7.10;99.90;;;;;;4820086;29;20059;-85
2022/01/04 00:45:22;;;;;;;32.38;5.00;;;7.10;99.90;;;;;;4844881;29;20053;-85
2022/01/04 00:50:21;;;;;;;28.85;4.60;;;7.10;99.90;;;;;;4830882;29;20614;-85
2022/01/04 00:52:47;;;;;;;37.33;6.03;;;7.20;99.90;;;;;;4828785;29;20086;-85
2022/01/04 00:55:13;;;;;;;44.37;5.90;;;7.20;99.90;;;;;;4836056;29;20041;-85
2022/01/04 00:57:40;;;;;;;28.13;4.57;;;7.20;99.90;;;;;;4813777;29;20488;-85
2022/01/04 01:00:08;;;;;;;31.70;5.38;;;7.20;99.90;;;;;;4840210;29;20037;-85
2022/01/04 01:02:34;;;;;;;37.83;5.75;;;7.20;99.90;;;;;;4840008;29;20097;-85
2022/01/04 01:05:00;;;;;;;43.80;5.50;;;7.20;99.90;;;;;;4844141;29;20057;-85
2022/01/04 01:07:26;;;;;;;37.60;5.50;;;7.20;99.90;;;;;;4827794;29;20077;-85
2022/01/04 01:12:43;;;;;;;35.75;5.05;;;7.30;99.90;;;;;;4824144;29;20077;-85
2022/01/04 01:15:10;;;;;;;38.03;5.03;;;7.30;99.90;;;;;;4840944;29;20041;-85
2022/01/04 01:17:36;;;;;;;37.55;5.00;;;7.30;99.90;;;;;;4848960;29;20410;-85
2022/01/04 01:20:04;;;;;;;37.30;5.03;;;7.30;99.90;;;;;;4819293;29;20044;-84
2022/01/04 01:22:30;;;;;;;35.25;5.10;;;7.40;99.90;;;;;;4841985;29;20147;-84
2022/01/04 01:24:55;;;;;;;35.63;5.27;;;7.40;99.90;;;;;;4844398;29;20124;-84
2022/01/04 01:27:22;;;;;;;27.57;4.67;;;7.40;99.90;;;;;;4803860;29;20109;-85
2022/01/04 01:29:48;;;;;;;40.80;6.82;;;7.30;99.90;;;;;;4808143;29;20362;-85
2022/01/04 01:32:13;;;;;;;34.03;5.40;;;7.40;99.90;;;;;;4843514;29;20548;-85
2022/01/04 01:34:41;;;;;;;31.93;6.53;;;7.30;99.90;;;;;;4842709;29;20052;-85
2022/01/04 01:37:08;;;;;;;32.60;5.95;;;7.30;99.90;;;;;;4814092;29;20499;-85
2022/01/04 01:39:33;;;;;;;31.95;6.25;;;7.20;99.90;;;;;;4859150;29;20041;-85
2022/01/04 01:41:59;;;;;;;35.97;6.10;;;7.20;99.90;;;;;;4826560;29;20045;-85
2022/01/04 01:44:25;;;;;;;32.57;6.40;;;7.10;99.90;;;;;;4837287;29;20052;-85
2022/01/04 01:46:51;;;;;;;40.67;6.40;;;7.10;99.90;;;;;;4837452;29;20136;-85
2022/01/04 01:49:17;;;;;;;39.43;7.80;;;7.10;99.90;;;;;;4828537;29;20147;-85
2022/01/04 01:51:44;;;;;;;28.13;6.30;;;7.00;99.90;;;;;;4823899;29;20285;-85
2022/01/04 01:54:09;;;;;;;36.95;7.72;;;6.80;99.90;;;;;;4823249;29;20056;-85
2022/01/04 01:56:35;;;;;;;43.53;7.60;;;6.80;99.90;;;;;;4849062;29;20040;-85
2022/01/04 01:59:01;;;;;;;42.37;7.10;;;6.70;99.90;;;;;;4821905;29;20482;-85
2022/01/04 02:01:26;;;;;;;36.97;8.93;;;6.70;99.90;;;;;;4810461;29;20506;-85
2022/01/04 02:03:52;;;;;;;44.87;8.70;;;6.70;99.90;;;;;;4811895;29;20053;-85
2022/01/04 02:06:18;;;;;;;46.60;9.97;;;6.70;99.90;;;;;;4811650;29;20048;-85
2022/01/04 02:08:44;;;;;;;39.25;9.60;;;6.80;99.90;;;;;;4848961;29;20091;-85
2022/01/04 02:11:11;;;;;;;47.33;9.40;;;6.80;99.90;;;;;;4822113;29;20526;-85
2022/01/04 02:13:37;;;;;;;45.33;8.48;;;6.80;99.90;;;;;;4825918;29;20043;-85
2022/01/04 02:16:03;;;;;;;50.37;10.20;;;6.80;99.90;;;;;;4836712;29;20409;-85
2022/01/04 02:18:29;;;;;;;44.88;9.48;;;6.80;99.90;;;;;;4836471;29;20092;-85
2022/01/04 02:20:55;;;;;;;64.23;10.70;;;6.90;99.90;;;;;;4827389;29;20379;-85
2022/01/04 02:23:22;;;;;;;45.92;10.07;;;6.90;99.90;;;;;;4843294;29;20048;-85
2022/01/04 02:25:48;;;;;;;50.05;10.15;;;6.90;99.90;;;;;;4817202;29;20048;-85
2022/01/04 02:28:18;;;;;;;47.97;9.75;;;7.00;99.90;;;;;;4839977;29;20049;-85
2022/01/04 02:30:44;;;;;;;55.38;10.73;;;7.00;99.90;;;;;;4825854;29;20048;-85
2022/01/04 02:33:10;;;;;;;44.40;9.48;;;7.10;99.90;;;;;;4816077;29;20045;-85
2022/01/04 02:35:36;;;;;;;45.10;9.53;;;7.10;99.90;;;;;;4826663;29;20045;-85
2022/01/04 02:38:02;;;;;;;49.10;11.10;;;7.10;99.90;;;;;;4826039;29;20045;-85
2022/01/04 02:40:29;;;;;;;44.42;9.55;;;7.10;99.90;;;;;;4842204;29;20033;-85
2022/01/04 02:42:55;;;;;;;49.95;9.15;;;7.10;99.90;;;;;;4860911;29;20105;-85
2022/01/04 02:45:22;;;;;;;52.03;9.80;;;7.20;99.90;;;;;;4824291;29;20049;-85
2022/01/04 02:47:48;;;;;;;39.83;9.32;;;7.10;99.90;;;;;;4830577;29;20059;-85
2022/01/04 02:50:14;;;;;;;44.57;8.20;;;7.10;99.90;;;;;;4848275;29;20485;-85
2022/01/04 02:52:40;;;;;;;49.27;9.70;;;7.10;99.90;;;;;;4824514;29;20286;-85
2022/01/04 02:55:08;;;;;;;45.87;8.57;;;7.10;99.90;;;;;;4839408;29;20431;-85
2022/01/04 02:57:34;;;;;;;38.63;8.95;;;7.10;99.90;;;;;;4823413;29;20101;-85
2022/01/04 03:00:00;;;;;;;41.63;8.33;;;7.10;99.90;;;;;;4846102;29;20387;-85
2022/01/04 03:02:26;;;;;;;43.50;8.65;;;7.10;99.90;;;;;;4828414;29;20124;-85
2022/01/04 03:04:52;;;;;;;44.67;8.67;;;7.10;99.90;;;;;;4824143;29;20110;-85
2022/01/04 03:07:17;;;;;;;41.30;8.00;;;7.10;99.90;;;;;;4825858;29;20045;-85
2022/01/04 03:09:43;;;;;;;35.70;7.80;;;7.10;99.90;;;;;;4862165;29;20131;-85
2022/01/04 03:12:10;;;;;;;42.27;8.53;;;7.10;99.90;;;;;;4820480;29;20045;-85
2022/01/04 03:14:36;;;;;;;41.53;8.73;;;7.10;99.90;;;;;;4838441;29;20052;-85
2022/01/04 03:17:03;;;;;;;43.50;8.45;;;7.10;99.90;;;;;;4841431;29;20073;-85
2022/01/04 03:19:29;;;;;;;43.33;8.18;;;7.10;99.90;;;;;;4849432;29;20079;-85
2022/01/04 03:21:55;;;;;;;41.20;8.27;;;7.00;99.90;;;;;;4827131;29;20037;-85
2022/01/04 03:24:20;;;;;;;39.70;7.57;;;7.00;99.90;;;;;;4811413;29;20056;-85
2022/01/04 03:26:46;;;;;;;42.17;8.43;;;7.00;99.90;;;;;;4811465;29;20045;-85
2022/01/04 03:29:14;;;;;;;33.37;8.30;;;7.00;99.90;;;;;;4858966;29;20052;-85
2022/01/04 03:31:42;;;;;;;44.42;8.65;;;7.00;99.90;;;;;;4837570;29;20510;-85
2022/01/04 03:34:08;;;;;;;41.83;9.93;;;7.00;99.90;;;;;;4841346;29;20043;-85
2022/01/04 03:36:34;;;;;;;49.80;9.70;;;7.00;99.90;;;;;;4825622;29;20069;-85
2022/01/04 03:39:04;;;;;;;38.50;8.07;;;7.00;99.90;;;;;;4810776;29;20044;-85
2022/01/04 03:41:31;;;;;;;42.70;8.60;;;7.00;99.90;;;;;;4838534;29;20117;-85
2022/01/04 03:43:57;;;;;;;38.00;8.18;;;6.90;99.90;;;;;;4829979;29;20494;-85
2022/01/04 03:46:23;;;;;;;54.13;9.60;;;6.90;99.90;;;;;;4831299;29;20049;-85
2022/01/04 03:48:49;;;;;;;42.53;7.53;;;7.00;99.90;;;;;;4812717;29;20051;-85
2022/01/04 03:51:15;;;;;;;43.13;8.80;;;6.90;99.90;;;;;;4816655;29;20132;-85
2022/01/04 03:53:41;;;;;;;39.35;8.48;;;7.00;99.90;;;;;;4840693;29;20101;-85
2022/01/04 03:56:07;;;;;;;38.47;8.03;;;6.90;99.90;;;;;;4821572;29;20057;-85
2022/01/04 03:58:32;;;;;;;48.03;8.73;;;7.00;99.90;;;;;;4821661;29;20125;-85
2022/01/04 04:00:58;;;;;;;57.27;10.40;;;7.00;99.90;;;;;;4825063;29;20301;-85
2022/01/04 04:03:24;;;;;;;54.03;8.57;;;7.00;99.90;;;;;;4816707;29;20145;-85
2022/01/04 04:05:50;;;;;;;41.93;9.00;;;7.10;99.90;;;;;;4838998;29;20112;-85
2022/01/04 04:08:16;;;;;;;45.30;8.77;;;7.00;99.90;;;;;;4837639;29;20084;-85
2022/01/04 04:10:42;;;;;;;42.30;8.27;;;7.10;99.90;;;;;;4836714;29;20044;-85
2022/01/04 04:13:08;;;;;;;46.77;8.30;;;7.10;99.90;;;;;;4826759;29;20046;-85
2022/01/04 04:15:34;;;;;;;47.67;10.47;;;7.10;99.90;;;;;;4845082;29;20053;-85
2022/01/04 04:17:59;;;;;;;44.27;8.47;;;7.00;99.90;;;;;;4849788;29;20037;-85
2022/01/04 04:20:25;;;;;;;34.40;8.17;;;7.10;99.90;;;;;;4834750;29;20101;-85
2022/01/04 04:22:51;;;;;;;44.33;9.07;;;7.10;99.90;;;;;;4844529;29;20056;-85
2022/01/04 04:25:17;;;;;;;43.57;9.27;;;7.10;99.90;;;;;;4815668;29;20051;-85
2022/01/04 04:27:43;;;;;;;44.70;9.43;;;7.10;99.90;;;;;;4835943;29;20056;-85
2022/01/04 04:30:10;;;;;;;38.47;8.67;;;7.10;99.90;;;;;;4852270;29;20133;-85
2022/01/04 04:32:35;;;;;;;35.80;8.02;;;7.10;99.90;;;;;;4820159;29;20042;-85
2022/01/04 04:35:03;;;;;;;38.83;8.93;;;7.10;99.90;;;;;;4843413;29;20037;-85
2022/01/04 04:37:28;;;;;;;40.83;8.73;;;7.10;99.90;;;;;;4835408;29;20429;-85
2022/01/04 04:39:54;;;;;;;37.73;10.13;;;7.10;99.90;;;;;;4828748;29;20041;-85
2022/01/04 04:42:20;;;;;;;38.40;9.97;;;7.20;99.90;;;;;;4809320;29;20077;-85
2022/01/04 04:44:46;;;;;;;50.03;11.10;;;7.20;99.90;;;;;;4840733;29;20076;-85
2022/01/04 04:47:12;;;;;;;37.05;10.25;;;7.30;99.90;;;;;;4807635;29;20045;-85
2022/01/04 04:49:38;;;;;;;43.00;9.63;;;7.30;99.90;;;;;;4825758;29;20104;-85
2022/01/04 04:52:04;;;;;;;40.33;9.80;;;7.30;99.90;;;;;;4824486;29;20499;-85
2022/01/04 04:54:30;;;;;;;40.22;10.23;;;7.40;99.90;;;;;;4828155;29;20522;-85
2022/01/04 04:56:56;;;;;;;50.37;9.23;;;7.40;99.90;;;;;;4825653;29;20045;-85
2022/01/04 04:59:22;;;;;;;40.93;8.87;;;7.40;99.90;;;;;;4853071;29;20298;-85
2022/01/04 05:01:48;;;;;;;50.80;8.52;;;7.40;99.90;;;;;;4829817;29;20113;-85
2022/01/04 05:04:14;;;;;;;40.13;8.40;;;7.40;99.90;;;;;;4839885;29;20610;-85
2022/01/04 05:06:40;;;;;;;42.30;8.47;;;7.40;99.90;;;;;;4820782;29;20088;-85
2022/01/04 05:09:06;;;;;;;39.70;8.80;;;7.40;99.90;;;;;;4842939;29;20101;-85
2022/01/04 05:11:32;;;;;;;39.20;8.83;;;7.30;99.90;;;;;;4832790;29;20076;-85
2022/01/04 05:13:58;;;;;;;44.00;8.68;;;7.40;99.90;;;;;;4844046;29;20301;-85
2022/01/04 05:16:23;;;;;;;46.30;8.50;;;7.40;99.90;;;;;;4829162;29;20028;-85
2022/01/04 05:18:49;;;;;;;43.90;8.43;;;7.30;99.90;;;;;;4814999;29;20411;-85
2022/01/04 05:21:15;;;;;;;39.17;8.03;;;7.30;99.90;;;;;;4828651;29;20080;-85
2022/01/04 05:23:40;;;;;;;37.80;8.13;;;7.30;99.90;;;;;;4841252;29;20057;-85
2022/01/04 05:26:06;;;;;;;43.93;9.03;;;7.30;99.90;;;;;;4834166;29;20145;-85
2022/01/04 05:28:32;;;;;;;35.50;7.87;;;7.30;99.90;;;;;;4809675;29;20392;-85
2022/01/04 05:30:58;;;;;;;46.50;10.00;;;7.20;99.90;;;;;;4833035;29;20046;-85
2022/01/04 05:33:24;;;;;;;41.47;8.88;;;7.20;99.90;;;;;;4842742;29;20093;-85
2022/01/04 05:35:49;;;;;;;36.50;8.50;;;7.20;99.90;;;;;;4836721;29;20048;-85
2022/01/04 05:38:15;;;;;;;39.50;8.70;;;7.20;99.90;;;;;;4828002;29;20534;-85
2022/01/04 05:40:42;;;;;;;46.30;9.33;;;7.20;99.90;;;;;;4828011;29;20116;-85
2022/01/04 05:43:08;;;;;;;45.80;9.52;;;7.20;99.90;;;;;;4837157;29;20719;-85
2022/01/04 05:45:34;;;;;;;38.97;9.33;;;7.20;99.90;;;;;;4852397;29;20165;-85
2022/01/04 05:48:00;;;;;;;51.33;9.67;;;7.20;99.90;;;;;;4852671;29;20302;-85
2022/01/04 05:50:26;;;;;;;43.60;9.03;;;7.20;99.90;;;;;;4844113;29;20052;-85
2022/01/04 05:52:51;;;;;;;42.50;9.73;;;7.20;99.90;;;;;;4826212;29;20667;-85
2022/01/04 05:55:17;;;;;;;43.13;9.03;;;7.30;99.90;;;;;;4829412;29;20056;-84
2022/01/04 05:57:43;;;;;;;47.20;9.70;;;7.30;99.90;;;;;;4838030;29;20042;-84
2022/01/04 06:00:10;;;;;;;48.47;9.40;;;7.30;99.90;;;;;;4823111;29;20044;-84
2022/01/04 06:02:35;;;;;;;39.83;9.57;;;7.30;99.90;;;;;;4842323;29;20044;-84
2022/01/04 06:05:03;;;;;;;36.23;7.50;;;7.40;99.90;;;;;;4809575;29;20127;-84
2022/01/04 06:07:29;;;;;;;41.22;8.25;;;7.40;99.90;;;;;;4838229;29;20060;-84
2022/01/04 06:09:55;;;;;;;37.97;7.13;;;7.30;99.90;;;;;;4829469;29;20041;-84
2022/01/04 06:15:01;;;;;;;29.75;5.10;;;7.30;99.90;;;;;;4836407;29;20525;-84
2022/01/04 06:17:29;;;;;;;24.10;5.22;;;7.20;99.90;;;;;;4854592;29;20040;-84
2022/01/04 06:19:55;;;;;;;22.27;4.63;;;7.20;99.90;;;;;;4843289;29;20116;-84
2022/01/04 06:22:25;;;;;;;23.35;4.38;;;7.20;99.90;;;;;;4834434;29;20045;-85
2022/01/04 06:24:52;;;;;;;20.60;3.28;;;7.20;99.90;;;;;;4842581;29;20097;-85
2022/01/04 06:27:18;;;;;;;21.73;3.88;;;7.10;99.90;;;;;;4838901;29;20554;-85
2022/01/04 06:29:44;;;;;;;28.08;4.57;;;7.10;99.90;;;;;;4853305;29;20516;-85
2022/01/04 06:32:11;;;;;;;30.03;5.93;;;7.10;99.90;;;;;;4825381;29;20053;-85
2022/01/04 06:34:38;;;;;;;37.30;7.78;;;7.10;99.90;;;;;;4822939;29;20049;-85
2022/01/04 06:37:05;;;;;;;39.75;8.70;;;7.20;99.90;;;;;;4841134;29;20041;-85
2022/01/04 06:39:31;;;;;;;44.33;10.07;;;7.20;99.90;;;;;;4826379;29;20048;-85
2022/01/04 06:41:57;;;;;;;48.72;12.10;;;7.20;99.90;;;;;;4824906;29;20049;-85
2022/01/04 06:44:23;;;;;;;41.88;11.20;;;7.30;99.90;;;;;;4854300;29;20052;-85
2022/01/04 06:46:49;;;;;;;51.95;12.10;;;7.30;99.90;;;;;;4850519;29;20048;-86
2022/01/04 06:49:17;;;;;;;49.22;12.25;;;7.30;99.90;;;;;;4826559;29;20048;-86
2022/01/04 06:51:44;;;;;;;42.00;10.18;;;7.30;99.90;;;;;;4823212;29;20471;-86
2022/01/04 06:54:11;;;;;;;48.00;10.55;;;7.30;99.90;;;;;;4816948;29;20124;-86
2022/01/04 06:56:37;;;;;;;49.97;10.35;;;7.30;99.90;;;;;;4840897;29;20041;-86
2022/01/04 06:59:05;;;;;;;46.80;10.57;;;7.30;99.90;;;;;;4845038;29;20093;-84
2022/01/04 07:01:31;;;;;;;42.15;10.02;;;7.30;99.90;;;;;;4843319;29;20128;-84
2022/01/04 07:03:57;;;;;;;46.40;9.20;;;7.30;99.90;;;;;;4861054;29;20060;-85
2022/01/04 07:06:23;;;;;;;37.67;6.97;;;7.30;99.90;;;;;;4857662;29;20528;-85
2022/01/04 07:08:49;;;;;;;24.10;4.90;;;7.30;99.90;;;;;;4849311;29;20043;-85
2022/01/04 07:11:16;;;;;;;23.43;3.63;;;7.20;99.90;;;;;;4829418;29;20513;-85
2022/01/04 07:13:42;;;;;;;18.00;2.40;;;7.20;99.90;;;;;;4807125;29;20052;-85
2022/01/04 07:16:08;;;;;;;17.92;2.50;;;7.20;99.90;;;;;;4827593;29;20450;-85
2022/01/04 07:18:34;;;;;;;25.38;4.20;;;7.20;99.90;;;;;;4844439;29;20071;-85
2022/01/04 07:21:00;;;;;;;23.17;3.42;;;7.10;99.90;;;;;;4819407;29;20495;-85
2022/01/04 07:23:27;;;;;;;32.30;4.88;;;7.10;99.90;;;;;;4845922;29;20045;-85
2022/01/04 07:25:54;;;;;;;25.52;4.55;;;7.10;99.90;;;;;;4843571;29;20088;-85
2022/01/04 07:28:21;;;;;;;25.38;4.15;;;7.10;99.90;;;;;;4825318;29;20049;-85
2022/01/04 07:30:47;;;;;;;25.75;4.20;;;7.10;99.90;;;;;;4853176;29;20066;-85
2022/01/04 07:33:13;;;;;;;23.17;3.40;;;7.10;99.90;;;;;;4825800;29;20129;-85
2022/01/04 07:35:38;;;;;;;29.47;3.30;;;7.20;99.90;;;;;;4827756;29;20055;-85
2022/01/04 07:38:04;;;;;;;22.80;3.47;;;7.20;99.90;;;;;;4821635;29;20062;-85
2022/01/04 07:40:30;;;;;;;27.35;3.10;;;7.20;99.90;;;;;;4823809;29;20037;-85
2022/01/04 07:42:59;;;;;;;26.90;3.60;;;7.10;99.90;;;;;;4808331;29;20053;-85
2022/01/04 07:45:35;;;;;;;21.13;3.72;;;7.10;99.90;;;;;;4824120;29;20041;-85
2022/01/04 07:48:01;;;;;;;32.17;3.88;;;7.10;99.90;;;;;;4837585;29;20048;-85
2022/01/04 07:50:27;;;;;;;25.65;4.45;;;7.00;99.90;;;;;;4841222;29;20052;-85
2022/01/04 07:52:53;;;;;;;24.58;4.22;;;7.00;99.90;;;;;;4822786;29;20048;-85
2022/01/04 07:55:20;;;;;;;25.85;3.78;;;6.90;99.90;;;;;;4838620;29;20160;-86
2022/01/04 07:57:45;;;;;;;25.70;3.97;;;6.90;99.90;;;;;;4839482;29;20151;-86
2022/01/04 08:00:13;;;;;;;27.87;4.37;;;6.90;99.90;;;;;;4825173;29;20077;-86
2022/01/04 08:02:40;;;;;;;28.92;3.80;;;6.90;99.90;;;;;;4839489;29;20045;-86
2022/01/04 08:05:07;;;;;;;21.52;3.28;;;6.90;99.90;;;;;;4797511;29;20064;-86
2022/01/04 08:07:33;;;;;;;23.70;3.50;;;6.80;99.90;;;;;;4841810;29;20476;-86
2022/01/04 08:09:59;;;;;;;34.83;4.50;;;6.80;99.90;;;;;;4814862;29;20148;-86
2022/01/04 08:12:26;;;;;;;26.55;3.85;;;6.80;99.90;;;;;;4856802;29;20089;-86
2022/01/04 08:14:52;;;;;;;23.92;3.97;;;6.80;99.90;;;;;;4835363;29;20056;-86
2022/01/04 08:17:18;;;;;;;30.63;4.97;;;6.80;99.90;;;;;;4835438;29;20045;-86
2022/01/04 08:19:43;;;;;;;26.47;3.80;;;6.80;99.90;;;;;;4840351;29;20394;-86
2022/01/04 08:22:09;;;;;;;29.13;3.73;;;6.80;99.90;;;;;;4809198;29;20292;-86
2022/01/04 08:24:35;;;;;;;22.77;3.65;;;6.70;99.90;;;;;;4840816;29;20480;-87
2022/01/04 08:27:01;;;;;;;17.70;3.37;;;6.90;99.90;;;;;;4799800;29;20049;-87
2022/01/04 08:29:28;;;;;;;16.90;3.87;;;6.90;99.90;;;;;;4826997;29;20049;-87
2022/01/04 08:31:54;;;;;;;12.10;2.60;;;6.80;99.90;;;;;;4837018;29;20129;-87
2022/01/04 08:34:20;;;;;;;13.87;2.13;;;6.80;99.90;;;;;;4809789;29;20301;-87
2022/01/04 08:36:46;;;;;;;9.50;1.10;;;6.80;99.90;;;;;;4809800;29;20041;-87
2022/01/04 08:39:14;;;;;;;7.53;1.07;;;6.70;99.90;;;;;;4808418;29;20037;-86
2022/01/04 08:41:46;;;;;;;7.57;0.93;;;6.70;99.90;;;;;;4815562;29;20063;-87
2022/01/04 08:44:12;;;;;;;5.53;0.80;;;6.60;99.90;;;;;;4855970;29;20055;-87
2022/01/04 08:46:39;;;;;;;4.10;0.57;;;6.60;99.90;;;;;;4839084;29;20040;-87
2022/01/04 08:49:08;;;;;;;4.78;0.70;;;6.50;99.90;;;;;;4840132;29;20309;-87
2022/01/04 08:51:37;;;;;;;8.98;1.30;;;6.50;99.90;;;;;;4829631;29;20045;-87
2022/01/04 08:54:04;;;;;;;4.70;0.60;;;6.50;99.90;;;;;;4839509;29;20045;-87
2022/01/04 08:56:31;;;;;;;8.30;0.70;;;6.50;99.90;;;;;;4826081;29;20120;-87
2022/01/04 08:58:57;;;;;;;6.40;0.88;;;6.40;99.90;;;;;;4842440;29;20489;-87
2022/01/04 09:01:22;;;;;;;3.10;0.50;;;6.40;99.90;;;;;;4840219;29;20135;-87
2022/01/04 09:03:48;;;;;;;3.90;0.40;;;6.30;99.90;;;;;;4804643;29;20093;-87
2022/01/04 09:06:15;;;;;;;6.27;0.60;;;6.30;99.90;;;;;;4820646;29;20577;-87
2022/01/04 09:08:42;;;;;;;5.40;0.65;;;6.30;99.90;;;;;;4836840;29;20092;-87
2022/01/04 09:11:08;;;;;;;5.00;1.15;;;6.30;99.90;;;;;;4838109;29;20060;-87
2022/01/04 09:13:39;;;;;;;5.97;0.65;;;6.20;99.90;;;;;;4838585;29;20044;-87
2022/01/04 09:18:46;;;;;;;5.97;0.95;;;6.20;99.90;;;;;;4854197;29;20052;-87
2022/01/04 09:21:17;;;;;;;6.88;0.63;;;6.20;99.90;;;;;;4823260;29;20269;-87
2022/01/04 09:23:45;;;;;;;4.85;0.73;;;6.20;99.90;;;;;;4837763;29;20045;-87
2022/01/04 09:26:12;;;;;;;6.40;0.73;;;6.20;99.90;;;;;;4822373;29;20044;-87
2022/01/04 09:28:38;;;;;;;3.05;0.50;;;6.20;99.90;;;;;;4820826;29;20051;-87
2022/01/04 09:31:04;;;;;;;10.60;1.43;;;6.20;99.90;;;;;;4852584;29;20045;-87
2022/01/04 09:33:30;;;;;;;4.55;0.57;;;6.20;99.90;;;;;;4837591;29;20342;-87
2022/01/04 09:35:56;;;;;;;11.07;1.30;;;6.20;99.90;;;;;;4822537;29;20689;-87
2022/01/04 09:38:22;;;;;;;9.65;1.40;;;6.20;99.90;;;;;;4836379;29;20070;-87
2022/01/04 09:40:49;;;;;;;7.25;1.23;;;6.20;99.90;;;;;;4821972;29;20151;-87
2022/01/04 09:43:16;;;;;;;6.68;1.30;;;6.20;99.90;;;;;;4815189;29;20255;-87
2022/01/04 09:45:42;;;;;;;9.75;1.70;;;6.10;99.90;;;;;;4836190;29;20132;-87
2022/01/04 09:48:08;;;;;;;6.80;1.80;;;6.20;99.90;;;;;;4819957;29;20543;-87
2022/01/04 09:50:37;;;;;;;4.45;1.10;;;6.10;99.90;;;;;;4835939;29;20505;-87
2022/01/04 09:53:06;;;;;;;4.95;0.70;;;6.20;99.90;;;;;;4837111;29;20534;-87
2022/01/04 09:55:34;;;;;;;5.82;0.95;;;6.10;99.90;;;;;;4835824;29;20132;-87
2022/01/04 09:58:00;;;;;;;7.45;0.68;;;6.10;99.90;;;;;;4839087;29;20132;-87
2022/01/04 10:00:27;;;;;;;4.00;0.52;;;6.10;99.90;;;;;;4851231;29;20446;-87
2022/01/04 10:03:17;;;;;;;5.25;0.40;;;6.00;99.90;;;;;;4823915;29;20048;-87
2022/01/04 10:05:44;;;;;;;5.78;0.38;;;5.90;99.90;;;;;;4855264;29;20529;-87
2022/01/04 10:08:12;;;;;;;3.45;0.45;;;5.90;99.90;;;;;;4833534;29;20108;-86
2022/01/04 10:10:39;;;;;;;2.03;0.25;;;5.80;99.90;;;;;;4838198;29;20076;-86
2022/01/04 10:13:12;;;;;;;6.97;0.40;;;5.70;99.90;;;;;;4840192;29;20099;-86
2022/01/04 10:15:50;;;;;;;4.25;0.47;;;5.60;99.90;;;;;;4861310;29;20063;-86
2022/01/04 10:18:20;;;;;;;4.88;0.28;;;5.70;99.90;;;;;;4849315;29;20051;-86
2022/01/04 10:20:52;;;;;;;6.70;0.50;;;5.60;99.90;;;;;;4836858;29;20044;-86
2022/01/04 10:23:22;;;;;;;3.35;0.25;;;5.70;99.90;;;;;;4832899;29;20411;-86
2022/01/04 10:25:50;;;;;;;2.95;0.40;;;5.70;99.90;;;;;;4833189;29;20084;-86
2022/01/04 10:28:33;;;;;;;3.72;0.68;;;5.70;99.90;;;;;;4825625;29;20045;-86
2022/01/04 10:31:02;;;;;;;6.18;0.60;;;5.70;99.90;;;;;;4830224;29;20356;-86
2022/01/04 10:33:28;;;;;;;6.28;0.50;;;5.70;99.90;;;;;;4839652;29;20045;-86
2022/01/04 10:35:55;;;;;;;3.77;0.40;;;5.70;99.90;;;;;;4840965;29;20048;-86
2022/01/04 10:38:23;;;;;;;4.13;0.30;;;5.60;99.90;;;;;;4827293;29;20033;-86
2022/01/04 10:41:15;;;;;;;5.30;0.50;;;5.40;99.90;;;;;;4836852;29;20048;-86
2022/01/04 10:43:44;;;;;;;5.75;0.30;;;5.20;99.90;;;;;;4851789;29;20077;-86
2022/01/04 10:46:11;;;;;;;5.82;0.40;;;5.20;99.90;;;;;;4851592;29;20056;-86
2022/01/04 10:48:43;;;;;;;5.45;0.80;;;5.10;99.90;;;;;;4825999;29;20049;-85
2022/01/04 10:51:11;;;;;;;7.22;0.82;;;5.10;99.90;;;;;;4837849;29;20077;-85
2022/01/04 10:53:39;;;;;;;5.53;0.55;;;5.00;99.90;;;;;;4838328;29;20667;-86
2022/01/04 10:56:11;;;;;;;3.63;0.43;;;5.10;99.90;;;;;;4855125;29;20454;-86
2022/01/04 10:58:41;;;;;;;14.07;0.90;;;5.20;99.90;;;;;;4860458;29;20045;-86
2022/01/04 11:01:13;;;;;;;6.07;0.63;;;5.20;99.90;;;;;;4838152;29;20406;-86
2022/01/04 11:03:44;;;;;;;3.15;0.40;;;5.20;99.90;;;;;;4848667;29;20084;-86
2022/01/04 11:06:31;;;;;;;7.55;0.60;;;5.20;99.90;;;;;;4839506;29;20052;-86
2022/01/04 11:08:58;;;;;;;3.30;0.40;;;5.30;99.90;;;;;;4856889;29;20037;-85
2022/01/04 11:11:24;;;;;;;2.15;0.32;;;5.30;99.90;;;;;;4842881;29;20658;-85
2022/01/04 11:13:53;;;;;;;4.03;0.30;;;5.40;99.90;;;;;;4826778;29;20525;-85
2022/01/04 11:16:24;;;;;;;6.55;0.65;;;5.30;99.90;;;;;;4840389;29;20128;-85
2022/01/04 11:18:53;;;;;;;5.68;0.30;;;5.40;99.90;;;;;;4822955;29;20039;-85
2022/01/04 11:21:24;;;;;;;4.93;0.60;;;5.40;99.90;;;;;;4839008;29;20060;-85
2022/01/04 11:23:54;;;;;;;4.18;0.22;;;5.50;99.90;;;;;;4840745;29;20750;-85
2022/01/04 11:26:20;;;;;;;4.88;0.47;;;5.60;99.90;;;;;;4834853;29;20053;-85
2022/01/04 11:28:48;;;;;;;8.37;1.03;;;5.60;99.90;;;;;;4845702;29;20123;-85
2022/01/04 11:31:37;;;;;;;3.85;0.40;;;5.60;99.90;;;;;;4852884;29;20076;-85
2022/01/04 11:34:56;;;;;;;7.03;0.85;;;5.70;99.90;;;;;;4833986;29;20516;-85
2022/01/04 11:37:24;;;;;;;6.90;0.60;;;5.70;99.90;;;;;;4751512;30;20058;-85
2022/01/04 11:39:51;;;;;;;4.25;0.25;;;5.80;99.90;;;;;;4822304;29;20041;-85
2022/01/04 11:42:37;;;;;;;5.50;0.70;;;5.90;99.90;;;;;;4815789;29;20049;-85
2022/01/04 11:45:09;;;;;;;6.40;0.70;;;5.90;99.90;;;;;;4839386;29;20041;-85
2022/01/04 11:47:35;;;;;;;7.03;0.60;;;5.90;99.90;;;;;;4840620;29;20056;-85
2022/01/04 11:50:13;;;;;;;4.22;0.40;;;5.90;99.90;;;;;;4824957;29;20181;-85
2022/01/04 11:52:47;;;;;;;5.40;0.68;;;5.90;99.90;;;;;;4842661;29;20418;-85
2022/01/04 11:55:26;;;;;;;6.40;0.50;;;5.90;99.90;;;;;;4841603;29;20049;-85
2022/01/04 11:57:57;;;;;;;5.43;0.55;;;5.90;99.90;;;;;;4854310;29;20041;-85
2022/01/04 12:00:45;;;;;;;9.25;0.82;;;6.00;99.90;;;;;;4842383;29;20041;-85
2022/01/04 12:03:12;;;;;;;4.68;0.63;;;6.00;99.90;;;;;;4843325;29;20112;-85
2022/01/04 12:05:41;;;;;;;10.20;0.70;;;6.00;99.90;;;;;;4841003;29;20545;-85
2022/01/04 12:08:20;;;;;;;6.53;0.60;;;6.00;99.90;;;;;;4822563;29;20053;-85
2022/01/04 12:10:54;;;;;;;8.00;0.55;;;6.00;99.90;;;;;;4830028;29;20079;-85
2022/01/04 12:13:22;;;;;;;6.88;1.08;;;6.00;99.90;;;;;;4840094;29;20406;-85
2022/01/04 12:15:52;;;;;;;9.32;1.40;;;5.90;99.90;;;;;;4843269;29;20040;-85
2022/01/04 12:18:24;;;;;;;10.50;0.90;;;5.80;99.90;;;;;;4841779;29;20045;-85
2022/01/04 12:20:52;;;;;;;5.55;0.52;;;5.60;99.90;;;;;;4852309;29;20041;-85
2022/01/04 12:23:26;;;;;;;7.70;0.98;;;5.50;99.90;;;;;;4862952;29;20065;-84
2022/01/04 12:26:05;;;;;;;6.78;0.60;;;5.40;99.90;;;;;;4841471;29;20055;-85
2022/01/04 12:28:55;;;;;;;4.50;0.52;;;5.30;99.90;;;;;;4871631;29;20139;-85
2022/01/04 12:31:32;;;;;;;8.00;1.33;;;5.20;99.90;;;;;;4844229;29;20056;-85
2022/01/04 12:34:07;;;;;;;6.32;0.60;;;5.20;99.90;;;;;;4834612;29;20105;-85
2022/01/04 12:36:38;;;;;;;7.30;0.63;;;5.20;99.90;;;;;;4853858;29;20449;-85
2022/01/04 12:39:11;;;;;;;11.60;0.70;;;5.20;99.90;;;;;;4848048;29;20403;-85
2022/01/04 12:41:39;;;;;;;7.03;0.60;;;5.10;99.90;;;;;;4846863;29;21082;-85
2022/01/04 12:44:06;;;;;;;9.35;1.27;;;5.20;99.90;;;;;;4829990;29;20048;-85
2022/01/04 12:46:38;;;;;;;3.88;0.40;;;5.20;99.90;;;;;;4827029;29;20186;-85
2022/01/04 12:49:05;;;;;;;8.75;0.50;;;5.20;99.90;;;;;;4859803;29;20084;-84
2022/01/04 12:51:47;;;;;;;4.72;0.40;;;5.30;99.90;;;;;;4845914;29;20053;-84
2022/01/04 12:54:27;;;;;;;7.18;0.43;;;5.30;99.90;;;;;;4845764;29;20057;-85
2022/01/04 12:57:02;;;;;;;5.88;0.60;;;5.30;99.90;;;;;;4844553;29;20037;-85
2022/01/04 12:59:35;;;;;;;5.32;0.68;;;5.30;99.90;;;;;;4842193;29;20047;-84
2022/01/04 13:02:31;;;;;;;6.85;1.08;;;5.40;99.90;;;;;;4845822;29;20577;-84
2022/01/04 13:05:03;;;;;;;6.43;0.68;;;5.40;99.90;;;;;;4827268;29;20053;-85